createdAt,value
2022-10-18T00:01:29.981Z,73.22
2022-10-18T00:03:56.997Z,73.33
2022-10-18T00:06:24.585Z,73.68
2022-10-18T00:08:53.005Z,73.83
2022-10-18T00:11:20.029Z,74.08
2022-10-18T00:13:47.079Z,74.60
2022-10-18T00:16:15.917Z,74.14
2022-10-18T00:18:43.677Z,74.15
2022-10-18T00:21:15.120Z,74.75
2022-10-18T00:23:42.483Z,74.66
2022-10-18T00:26:18.597Z,74.50
2022-10-18T00:28:45.828Z,74.24
2022-10-18T00:31:20.220Z,74.79
2022-10-18T00:33:47.832Z,74.61
2022-10-18T00:36:15.216Z,74.48
2022-10-18T00:38:42.441Z,74.32
2022-10-18T00:41:10.050Z,74.61
2022-10-18T00:43:55.664Z,74.98
2022-10-18T00:46:22.936Z,74.68
2022-10-18T00:48:50.047Z,75.13
2022-10-18T00:51:17.399Z,74.75
2022-10-18T00:53:44.422Z,74.60
2022-10-18T00:56:11.559Z,74.57
2022-10-18T00:58:38.601Z,74.50
2022-10-18T01:01:05.702Z,74.65
2022-10-18T01:03:32.735Z,74.55
2022-10-18T01:05:59.949Z,74.36
2022-10-18T01:08:33.063Z,75.05
2022-10-18T01:11:09.038Z,74.86
2022-10-18T01:13:45.116Z,74.61
2022-10-18T01:16:20.441Z,74.92
2022-10-18T01:18:57.384Z,74.63
2022-10-18T01:21:40.331Z,74.53
2022-10-18T01:24:15.765Z,74.91
2022-10-18T01:26:52.085Z,74.64
2022-10-18T01:29:38.058Z,74.46
2022-10-18T01:32:06.975Z,74.51
2022-10-18T01:34:35.292Z,74.53
2022-10-18T01:37:03.291Z,74.48
2022-10-18T01:39:37.761Z,74.73
2022-10-18T01:42:06.168Z,75.18
2022-10-18T01:44:34.434Z,74.94
2022-10-18T01:47:01.937Z,75.12
2022-10-18T01:49:28.986Z,75.69
2022-10-18T01:51:56.030Z,75.96
2022-10-18T01:54:24.867Z,76.48
2022-10-18T01:56:55.338Z,76.34
2022-10-18T01:59:41.031Z,76.54
2022-10-18T02:02:13.754Z,76.55
2022-10-18T02:04:48.928Z,76.45
2022-10-18T02:07:22.061Z,76.72
2022-10-18T02:10:00.211Z,76.84
2022-10-18T02:12:27.574Z,77.21
2022-10-18T02:14:56.304Z,77.77
2022-10-18T02:17:23.425Z,77.78
2022-10-18T02:19:51.117Z,78.28
2022-10-18T02:22:18.301Z,78.42
2022-10-18T02:24:46.701Z,78.40
2022-10-18T02:27:13.844Z,78.41
2022-10-18T02:29:41.949Z,78.52
2022-10-18T02:32:20.076Z,78.50
2022-10-18T02:34:49.397Z,78.52
2022-10-18T02:37:16.604Z,78.39
2022-10-18T02:39:44.934Z,78.83
2022-10-18T02:42:12.199Z,78.83
2022-10-18T02:44:39.320Z,79.03
2022-10-18T02:47:06.810Z,78.66
2022-10-18T02:49:33.920Z,79.40
2022-10-18T02:52:01.119Z,79.40
2022-10-18T02:54:28.432Z,78.94
2022-10-18T02:56:55.541Z,78.71
2022-10-18T02:59:22.620Z,79.13
2022-10-18T03:01:49.755Z,78.88
2022-10-18T03:04:18.200Z,78.82
2022-10-18T03:06:48.804Z,79.25
2022-10-18T03:09:15.933Z,78.90
2022-10-18T03:11:42.982Z,78.81
2022-10-18T03:14:10.113Z,79.31
2022-10-18T03:16:37.868Z,79.06
2022-10-18T03:19:04.978Z,79.61
2022-10-18T03:21:32.011Z,79.46
2022-10-18T03:23:59.797Z,79.35
2022-10-18T03:26:28.340Z,79.43
2022-10-18T03:28:55.713Z,78.73
2022-10-18T03:31:23.136Z,78.81
2022-10-18T03:33:50.231Z,78.50
2022-10-18T03:36:17.322Z,79.01
2022-10-18T03:38:44.728Z,78.60
2022-10-18T03:41:11.827Z,78.63
2022-10-18T03:43:38.909Z,78.25
2022-10-18T03:46:06.040Z,78.02
2022-10-18T03:48:33.194Z,78.41
2022-10-18T03:51:00.325Z,78.48
2022-10-18T03:53:27.358Z,77.82
2022-10-18T03:55:54.892Z,78.00
2022-10-18T03:58:22.171Z,78.28
2022-10-18T04:00:52.740Z,77.69
2022-10-18T04:03:20.051Z,78.66
2022-10-18T04:05:47.225Z,77.23
2022-10-18T04:08:14.424Z,76.08
2022-10-18T04:10:41.736Z,75.82
2022-10-18T04:13:11.048Z,75.50
2022-10-18T04:15:38.133Z,75.68
2022-10-18T04:18:06.655Z,75.73
2022-10-18T04:20:34.346Z,75.93
2022-10-18T04:23:01.968Z,75.96
2022-10-18T04:25:29.655Z,75.44
2022-10-18T04:27:56.765Z,75.30
2022-10-18T04:30:23.926Z,75.33
2022-10-18T04:32:50.938Z,76.25
2022-10-18T04:35:18.342Z,75.89
2022-10-18T04:37:46.073Z,75.59
2022-10-18T04:40:13.133Z,75.82
2022-10-18T04:42:40.166Z,75.77
2022-10-18T04:45:07.690Z,75.46
2022-10-18T04:47:35.049Z,75.00
2022-10-18T04:50:02.320Z,74.67
2022-10-18T04:52:29.492Z,74.29
2022-10-18T04:54:56.566Z,73.29
2022-10-18T04:57:23.922Z,73.85
2022-10-18T04:59:51.013Z,74.67
2022-10-18T05:02:18.130Z,74.07
2022-10-18T05:04:45.199Z,74.54
2022-10-18T05:07:12.248Z,74.89
2022-10-18T05:09:39.413Z,75.05
2022-10-18T05:12:06.687Z,74.12
2022-10-18T05:14:34.279Z,74.37
2022-10-18T05:17:01.837Z,73.01
2022-10-18T05:19:29.687Z,72.68
2022-10-18T05:21:56.751Z,72.15
2022-10-18T05:24:26.890Z,71.28
2022-10-18T05:26:55.017Z,69.76
2022-10-18T05:29:22.406Z,69.55
2022-10-18T05:31:49.824Z,68.49
2022-10-18T05:34:17.180Z,67.94
2022-10-18T05:36:44.272Z,67.99
2022-10-18T05:39:11.465Z,67.83
2022-10-18T05:41:38.489Z,67.86
2022-10-18T05:44:05.786Z,67.90
2022-10-18T05:46:32.944Z,67.21
2022-10-18T05:49:00.047Z,66.67
2022-10-18T05:51:28.695Z,65.69
2022-10-18T05:53:55.950Z,65.76
2022-10-18T05:56:23.129Z,65.97
2022-10-18T05:58:50.681Z,65.59
2022-10-18T06:01:17.776Z,64.14
2022-10-18T06:03:45.315Z,64.05
2022-10-18T06:06:12.565Z,62.87
2022-10-18T06:08:40.021Z,62.11
2022-10-18T06:11:15.490Z,61.50
2022-10-18T06:13:46.754Z,61.74
2022-10-18T06:16:15.222Z,60.96
2022-10-18T06:18:42.385Z,61.18
2022-10-18T06:21:09.468Z,61.18
2022-10-18T06:23:38.564Z,60.74
2022-10-18T06:26:06.771Z,61.10
2022-10-18T06:28:34.604Z,59.79
2022-10-18T06:31:02.473Z,58.99
2022-10-18T06:33:30.559Z,56.91
2022-10-18T06:36:01.267Z,58.63
2022-10-18T06:38:28.587Z,56.93
2022-10-18T06:40:55.940Z,56.95
2022-10-18T06:43:23.116Z,55.92
2022-10-18T06:45:50.418Z,55.59
2022-10-18T06:48:17.722Z,50.57
2022-10-18T06:50:55.580Z,42.60
2022-10-18T06:53:24.337Z,36.19
2022-10-18T06:55:51.715Z,33.82
2022-10-18T06:58:19.080Z,32.73
2022-10-18T07:00:47.125Z,31.12
2022-10-18T07:03:15.748Z,31.38
2022-10-18T07:05:43.158Z,31.78
2022-10-18T07:08:10.442Z,32.19
2022-10-18T07:10:38.457Z,32.33
2022-10-18T07:13:31.096Z,32.96
2022-10-18T07:16:11.528Z,32.88
2022-10-18T07:18:43.047Z,32.11
2022-10-18T07:21:11.029Z,33.21
2022-10-18T07:23:39.315Z,34.22
2022-10-18T07:26:14.299Z,35.85
2022-10-18T07:28:42.873Z,36.94
2022-10-18T07:31:10.286Z,36.23
2022-10-18T07:33:43.033Z,36.70
2022-10-18T07:36:10.784Z,38.75
2022-10-18T07:38:38.534Z,38.81
2022-10-18T07:41:07.011Z,38.27
2022-10-18T07:43:36.721Z,35.22
2022-10-18T07:46:04.395Z,31.78
2022-10-18T07:48:31.758Z,30.34
2022-10-18T07:50:59.829Z,30.09
2022-10-18T07:53:34.732Z,29.49
2022-10-18T07:56:04.716Z,30.09
2022-10-18T07:58:35.244Z,30.44
2022-10-18T08:01:03.573Z,30.79
2022-10-18T08:03:31.761Z,29.80
2022-10-18T08:05:59.276Z,29.12
2022-10-18T08:08:26.713Z,29.89
2022-10-18T08:10:54.763Z,29.20
2022-10-18T08:13:22.000Z,28.88
2022-10-18T08:15:49.186Z,28.84
2022-10-18T08:18:20.369Z,28.61
2022-10-18T08:20:47.913Z,28.05
2022-10-18T08:23:15.352Z,27.96
2022-10-18T08:25:42.694Z,28.07
2022-10-18T08:28:10.644Z,27.34
2022-10-18T08:30:37.987Z,27.54
2022-10-18T08:33:05.596Z,26.31
2022-10-18T08:35:32.909Z,25.72
2022-10-18T08:38:00.549Z,25.91
2022-10-18T08:40:28.212Z,25.38
2022-10-18T08:43:09.382Z,24.95
2022-10-18T08:45:42.488Z,24.72
2022-10-18T08:48:18.194Z,25.04
2022-10-18T08:50:45.556Z,25.19
2022-10-18T08:53:14.517Z,25.75
2022-10-18T08:55:43.495Z,25.49
2022-10-18T08:58:26.930Z,25.44
2022-10-18T09:01:06.880Z,26.29
2022-10-18T09:03:53.002Z,26.32
2022-10-18T09:06:36.137Z,25.53
2022-10-18T09:09:06.512Z,25.32
2022-10-18T09:11:41.895Z,25.25
2022-10-18T09:14:21.554Z,24.78
2022-10-18T09:16:54.572Z,24.09
2022-10-18T09:19:40.602Z,24.57
2022-10-18T09:22:18.334Z,23.24
2022-10-18T09:24:48.507Z,23.51
2022-10-18T09:27:16.589Z,23.78
2022-10-18T09:29:54.318Z,24.09
2022-10-18T09:32:47.844Z,24.43
2022-10-18T09:35:18.980Z,24.24
2022-10-18T09:37:46.386Z,24.18
2022-10-18T09:40:19.077Z,23.63
2022-10-18T09:42:56.044Z,23.85
2022-10-18T09:45:30.935Z,23.60
2022-10-18T09:47:58.274Z,24.15
2022-10-18T09:50:30.148Z,24.31
2022-10-18T09:52:57.372Z,23.80
2022-10-18T09:55:26.781Z,22.39
2022-10-18T09:57:58.336Z,23.13
2022-10-18T10:00:30.095Z,23.11
2022-10-18T10:02:58.954Z,23.28
2022-10-18T10:05:26.160Z,23.20
2022-10-18T10:07:58.717Z,22.59
2022-10-18T10:10:26.560Z,21.60
2022-10-18T10:13:02.670Z,21.85
2022-10-18T10:15:33.199Z,21.04
2022-10-18T10:18:17.760Z,21.25
2022-10-18T10:20:45.617Z,21.58
2022-10-18T10:25:44.195Z,20.65
2022-10-18T10:28:15.948Z,20.62
2022-10-18T10:30:43.192Z,20.88
2022-10-18T10:33:29.703Z,21.60
2022-10-18T10:36:00.295Z,21.78
2022-10-18T10:38:28.396Z,22.14
2022-10-18T10:40:55.917Z,21.60
2022-10-18T10:43:38.233Z,21.11
2022-10-18T10:46:12.953Z,22.06
2022-10-18T10:48:51.051Z,21.39
2022-10-18T10:51:28.524Z,22.13
2022-10-18T10:54:14.128Z,22.02
2022-10-18T10:57:00.597Z,22.18
2022-10-18T10:59:28.862Z,22.25
2022-10-18T11:02:15.427Z,22.20
2022-10-18T11:04:42.759Z,21.93
2022-10-18T11:07:13.760Z,22.40
2022-10-18T11:09:50.132Z,22.18
2022-10-18T11:12:23.097Z,22.03
2022-10-18T11:14:59.890Z,22.00
2022-10-18T11:17:29.873Z,22.56
2022-10-18T11:20:03.625Z,22.39
2022-10-18T11:22:35.778Z,22.81
2022-10-18T11:25:04.450Z,23.19
2022-10-18T11:27:41.538Z,22.89
2022-10-18T11:30:12.581Z,23.26
2022-10-18T11:32:40.060Z,23.41
2022-10-18T11:35:16.069Z,23.76
2022-10-18T11:38:02.178Z,24.35
2022-10-18T11:40:48.309Z,24.37
2022-10-18T11:43:15.866Z,24.73
2022-10-18T11:45:52.801Z,24.78
2022-10-18T11:48:26.323Z,24.93
2022-10-18T11:50:59.285Z,25.01
2022-10-18T11:53:29.313Z,25.44
2022-10-18T11:56:06.646Z,25.69
2022-10-18T11:58:36.985Z,24.57
2022-10-18T12:01:28.327Z,24.39
2022-10-18T12:04:02.112Z,24.85
2022-10-18T12:06:31.708Z,24.34
2022-10-18T12:09:00.049Z,24.84
2022-10-18T12:11:29.251Z,25.15
2022-10-18T12:13:58.911Z,25.84
2022-10-18T12:16:49.527Z,24.49
2022-10-18T12:19:25.196Z,24.79
2022-10-18T12:22:03.191Z,25.09
2022-10-18T12:24:30.712Z,24.93
2022-10-18T12:27:01.182Z,25.10
2022-10-18T12:29:28.876Z,24.76
2022-10-18T12:31:57.518Z,24.94
2022-10-18T12:34:40.077Z,24.68
2022-10-18T12:37:19.948Z,25.15
2022-10-18T12:40:11.157Z,24.63
2022-10-18T12:42:41.819Z,25.01
2022-10-18T12:45:29.727Z,25.19
2022-10-18T12:48:05.290Z,25.67
2022-10-18T12:50:35.248Z,25.19
2022-10-18T12:53:02.917Z,24.68
2022-10-18T12:55:32.404Z,24.73
2022-10-18T12:58:00.994Z,24.90
2022-10-18T13:00:31.916Z,25.69
2022-10-18T13:03:16.755Z,25.63
2022-10-18T13:05:52.897Z,25.76
2022-10-18T13:08:27.293Z,25.49
2022-10-18T13:11:19.335Z,25.61
2022-10-18T13:13:59.074Z,26.02
2022-10-18T13:16:29.973Z,26.28
2022-10-18T13:19:03.492Z,25.92
2022-10-18T13:21:43.598Z,26.58
2022-10-18T13:24:24.365Z,26.54
2022-10-18T13:26:59.203Z,26.46
2022-10-18T13:29:58.463Z,26.80
2022-10-18T13:32:32.292Z,26.75
2022-10-18T13:35:01.833Z,26.80
2022-10-18T13:37:30.192Z,27.10
2022-10-18T13:40:16.494Z,27.11
2022-10-18T13:42:44.368Z,27.19
2022-10-18T13:45:30.285Z,27.60
2022-10-18T13:47:58.126Z,27.41
2022-10-18T13:50:32.657Z,27.51
2022-10-18T13:53:12.735Z,27.82
2022-10-18T13:55:43.127Z,28.64
2022-10-18T13:58:13.776Z,28.88
2022-10-18T14:00:53.884Z,29.50
2022-10-18T14:03:51.263Z,29.65
2022-10-18T14:06:11.411Z,29.57
2022-10-18T14:08:40.860Z,29.74
2022-10-18T14:11:28.287Z,30.01
2022-10-18T14:14:03.479Z,30.17
2022-10-18T14:16:35.693Z,30.24
2022-10-18T14:19:05.393Z,30.49
2022-10-18T14:21:35.402Z,30.67
2022-10-18T14:24:03.183Z,30.67
2022-10-18T14:26:33.080Z,30.91
2022-10-18T14:29:04.656Z,30.91
2022-10-18T14:31:32.575Z,30.99
2022-10-18T14:34:00.001Z,31.13
2022-10-18T14:36:27.712Z,31.10
2022-10-18T14:38:55.955Z,31.44
2022-10-18T14:41:24.267Z,31.70
2022-10-18T14:43:51.893Z,31.53
2022-10-18T14:46:28.025Z,32.00
2022-10-18T14:49:01.009Z,32.06
2022-10-18T14:51:29.124Z,32.36
2022-10-18T14:53:56.434Z,32.33
2022-10-18T14:56:27.999Z,32.58
2022-10-18T14:58:55.511Z,32.50
2022-10-18T15:01:24.957Z,32.82
2022-10-18T15:03:55.556Z,32.64
2022-10-18T15:06:22.745Z,33.04
2022-10-18T15:08:51.932Z,33.18
2022-10-18T15:11:19.552Z,33.17
2022-10-18T15:13:48.341Z,33.46
2022-10-18T15:16:19.360Z,33.40
2022-10-18T15:19:05.540Z,33.66
2022-10-18T15:21:33.337Z,33.80
2022-10-18T15:24:20.298Z,34.06
2022-10-18T15:26:47.576Z,34.23
2022-10-18T15:29:16.387Z,34.28
2022-10-18T15:31:44.520Z,34.41
2022-10-18T15:34:27.147Z,34.40
2022-10-18T15:36:54.833Z,34.62
2022-10-18T15:39:30.677Z,34.68
2022-10-18T15:41:58.518Z,34.86
2022-10-18T15:44:36.636Z,35.01
2022-10-18T15:47:13.189Z,34.85
2022-10-18T15:49:44.235Z,35.12
2022-10-18T15:52:20.720Z,35.16
2022-10-18T15:57:16.156Z,35.39
2022-10-18T15:59:51.595Z,35.33
2022-10-18T16:02:18.958Z,35.68
2022-10-18T16:04:47.550Z,36.02
2022-10-18T16:07:14.890Z,35.70
2022-10-18T16:09:42.107Z,35.69
2022-10-18T16:12:10.996Z,35.87
2022-10-18T16:14:38.352Z,35.80
2022-10-18T16:17:06.479Z,36.14
2022-10-18T16:19:36.376Z,36.14
2022-10-18T16:22:06.628Z,36.21
2022-10-18T16:24:34.250Z,36.41
2022-10-18T16:27:01.520Z,36.66
2022-10-18T16:29:32.224Z,36.79
2022-10-18T16:31:59.980Z,36.59
2022-10-18T16:34:27.493Z,36.84
2022-10-18T16:36:55.296Z,36.99
2022-10-18T16:39:22.653Z,37.18
2022-10-18T16:41:51.394Z,37.37
2022-10-18T16:44:19.307Z,37.51
2022-10-18T16:46:51.066Z,37.53
2022-10-18T16:49:25.002Z,37.94
2022-10-18T16:51:52.415Z,37.99
2022-10-18T16:54:19.645Z,38.61
2022-10-18T16:56:47.921Z,39.11
2022-10-18T16:59:25.987Z,39.43
2022-10-18T17:01:53.234Z,39.63
2022-10-18T17:04:20.632Z,40.25
2022-10-18T17:06:51.856Z,40.81
2022-10-18T17:09:19.068Z,40.65
2022-10-18T17:11:46.834Z,40.73
2022-10-18T17:14:14.045Z,40.99
2022-10-18T17:16:45.634Z,41.13
2022-10-18T17:19:16.811Z,41.57
2022-10-18T17:21:44.040Z,42.19
2022-10-18T17:24:12.067Z,42.85
2022-10-18T17:26:39.674Z,43.93
2022-10-18T17:29:08.281Z,44.79
2022-10-18T17:31:36.250Z,45.43
2022-10-18T17:34:03.668Z,46.66
2022-10-18T17:36:31.425Z,46.94
2022-10-18T17:38:58.866Z,47.89
2022-10-18T17:41:26.592Z,49.03
2022-10-18T17:43:53.989Z,50.03
2022-10-18T17:46:21.367Z,50.18
2022-10-18T17:48:48.641Z,50.16
2022-10-18T17:51:16.349Z,51.25
2022-10-18T17:53:43.601Z,52.23
2022-10-18T17:56:16.099Z,52.86
2022-10-18T17:58:45.384Z,53.38
2022-10-18T18:01:17.075Z,54.03
2022-10-18T18:03:44.824Z,54.45
2022-10-18T18:06:22.001Z,54.75
2022-10-18T18:08:49.336Z,55.26
2022-10-18T18:11:16.822Z,56.28
2022-10-18T18:13:44.199Z,56.68
2022-10-18T18:16:13.449Z,56.96
2022-10-18T18:18:40.753Z,57.38
2022-10-18T18:21:10.160Z,57.55
2022-10-18T18:23:39.877Z,57.45
2022-10-18T18:26:07.594Z,57.47
2022-10-18T18:28:36.344Z,57.57
2022-10-18T18:31:14.484Z,57.94
2022-10-18T18:33:42.067Z,57.64
2022-10-18T18:36:09.369Z,57.61
2022-10-18T18:38:37.537Z,58.33
2022-10-18T18:41:14.053Z,57.84
2022-10-18T18:43:43.136Z,58.44
2022-10-18T18:46:10.847Z,58.61
2022-10-18T18:48:38.990Z,58.50
2022-10-18T18:51:08.146Z,58.14
2022-10-18T18:53:35.616Z,58.13
2022-10-18T18:56:10.354Z,58.41
2022-10-18T18:58:38.084Z,58.67
2022-10-18T19:01:09.717Z,58.23
2022-10-18T19:03:38.571Z,58.84
2022-10-18T19:06:06.677Z,59.25
2022-10-18T19:08:34.588Z,59.93
2022-10-18T19:11:02.123Z,60.58
2022-10-18T19:13:29.976Z,60.43
2022-10-18T19:16:30.397Z,61.13
2022-10-18T19:18:58.061Z,61.64
2022-10-18T19:21:26.372Z,61.50
2022-10-18T19:23:53.742Z,61.91
2022-10-18T19:26:25.544Z,61.99
2022-10-18T19:28:53.025Z,61.65
2022-10-18T19:31:20.437Z,61.05
2022-10-18T19:33:58.978Z,60.32
2022-10-18T19:36:27.887Z,60.28
2022-10-18T19:38:55.656Z,60.61
2022-10-18T19:43:51.224Z,60.60
2022-10-18T19:46:18.497Z,60.79
2022-10-18T19:48:46.002Z,61.21
2022-10-18T19:51:17.309Z,61.57
2022-10-18T19:53:48.549Z,61.90
2022-10-18T19:56:20.056Z,62.00
2022-10-18T19:58:48.045Z,62.56
2022-10-18T20:01:16.038Z,63.24
2022-10-18T20:03:43.453Z,63.84
2022-10-18T20:06:10.688Z,64.18
2022-10-18T20:08:38.477Z,63.99
2022-10-18T20:11:13.160Z,64.53
2022-10-18T20:13:41.005Z,65.19
2022-10-18T20:16:09.049Z,65.36
2022-10-18T20:18:36.379Z,65.54
2022-10-18T20:21:04.319Z,66.04
2022-10-18T20:23:32.661Z,66.24
2022-10-18T20:26:00.609Z,66.25
2022-10-18T20:28:28.005Z,66.27
2022-10-18T20:31:08.711Z,66.20
2022-10-18T20:33:36.371Z,65.85
2022-10-18T20:36:07.773Z,65.81
2022-10-18T20:38:36.356Z,66.32
2022-10-18T20:41:14.304Z,66.24
2022-10-18T20:43:41.779Z,65.95
2022-10-18T20:46:09.861Z,66.03
2022-10-18T20:48:37.151Z,65.61
2022-10-18T20:51:13.214Z,64.94
2022-10-18T20:53:40.864Z,64.66
2022-10-18T20:56:11.998Z,64.02
2022-10-18T20:58:39.578Z,63.39
2022-10-18T21:01:12.854Z,63.42
2022-10-18T21:03:41.733Z,63.62
2022-10-18T21:06:10.341Z,63.75
2022-10-18T21:08:37.577Z,63.73
2022-10-18T21:11:07.760Z,63.60
2022-10-18T21:13:36.637Z,63.42
2022-10-18T21:16:07.175Z,63.80
2022-10-18T21:18:35.126Z,63.68
2022-10-18T21:21:15.776Z,63.71
2022-10-18T21:23:43.314Z,64.43
2022-10-18T21:26:14.282Z,64.65
2022-10-18T21:28:43.047Z,65.13
2022-10-18T21:31:14.749Z,65.41
2022-10-18T21:33:43.203Z,65.45
2022-10-18T21:36:10.585Z,65.67
2022-10-18T21:38:37.940Z,66.00
2022-10-18T21:41:14.727Z,66.26
2022-10-18T21:43:43.020Z,66.72
2022-10-18T21:46:10.566Z,66.47
2022-10-18T21:48:38.263Z,66.37
2022-10-18T21:51:06.451Z,67.16
2022-10-18T21:53:34.718Z,67.53
2022-10-18T21:56:06.311Z,67.77
2022-10-18T21:58:34.544Z,67.87
2022-10-18T22:01:01.980Z,68.18
2022-10-18T22:03:29.456Z,68.39
2022-10-18T22:06:01.806Z,68.46
2022-10-18T22:08:29.331Z,68.42
2022-10-18T22:10:57.196Z,67.83
2022-10-18T22:13:24.512Z,67.70
2022-10-18T22:15:52.565Z,68.18
2022-10-18T22:18:19.815Z,68.61
2022-10-18T22:20:55.387Z,68.88
2022-10-18T22:23:22.950Z,68.67
2022-10-18T22:25:50.243Z,69.08
2022-10-18T22:28:17.527Z,69.39
2022-10-18T22:30:44.926Z,69.62
2022-10-18T22:33:12.496Z,69.51
2022-10-18T22:35:39.695Z,69.74
2022-10-18T22:38:07.069Z,69.92
2022-10-18T22:40:34.363Z,69.82
2022-10-18T22:43:01.654Z,70.07
2022-10-18T22:45:29.096Z,70.44
2022-10-18T22:47:56.412Z,70.56
2022-10-18T22:50:23.745Z,70.50
2022-10-18T22:52:53.893Z,70.43
2022-10-18T22:55:22.108Z,70.44
2022-10-18T22:57:49.412Z,70.25
2022-10-18T23:00:16.822Z,70.06
2022-10-18T23:02:44.096Z,70.18
2022-10-18T23:05:11.408Z,70.20
2022-10-18T23:07:38.661Z,69.93
2022-10-18T23:10:06.873Z,69.82
2022-10-18T23:12:34.345Z,70.30
2022-10-18T23:15:03.115Z,70.70
2022-10-18T23:17:30.790Z,71.07
2022-10-18T23:19:58.246Z,71.34
2022-10-18T23:22:25.788Z,71.39
2022-10-18T23:24:53.213Z,71.77
2022-10-18T23:27:20.491Z,71.77
2022-10-18T23:29:47.763Z,72.18
2022-10-18T23:32:15.124Z,72.17
2022-10-18T23:34:42.704Z,72.41
2022-10-18T23:37:09.902Z,72.28
2022-10-18T23:39:38.544Z,72.19
2022-10-18T23:42:05.910Z,72.13
2022-10-18T23:44:33.457Z,72.18
2022-10-18T23:47:00.788Z,71.90
2022-10-18T23:49:28.103Z,71.89
2022-10-18T23:51:55.755Z,72.17
2022-10-18T23:54:23.187Z,71.93
2022-10-18T23:56:50.586Z,71.73
2022-10-18T23:59:17.985Z,71.91
